Royal, IA

12:42 PM CDT on July 24, 2014 (GMT -0500)
Spencer Municipal (KSPW) Elev 1339 ft | 43.17 °N, 95.20 °W | Change Station

Current weather conditions updated 49 minutes ago

Partly Cloudy
Partly Cloudy
76 °F
Feels Like 76 °F
N
13
Wind Variable Wind from South

Today is forecast to be Cooler than yesterday. Chance of showers.

Today
High -- | Low -- °F
--% Chance of Precip.
Yesterday
High -- | Low -- °F
Precip. -- in
6:03 AM 8:50 PM
Waning Crescent, 4% visible
Pressure 30.09 in
Visibility 10.0 miles
Clouds Clear
Dew Point 59 °F
Humidity 56%
Rainfall 0.00 in
Snow Depth Not available.
UV 10 out of 12
Pollen 4.80 out of 12
Air Quality Not available.
Flu Activity Not available.
METAR KSPW 241653Z AUTO 18011KT 10SM CLR 24/15 A3010 RMK AO2 SLP188 T02440150

More Conditions Fewer Conditions

Pressure 30.09 in
Visibility 10.0 miles
Clouds Clear
Dew Point 59 °F
Humidity 56%
Rainfall 0.00 in
Snow Depth Not available.
UV 10 out of 12
Pollen 4.80 out of 12
Air Quality Not available.
Flu Activity Not available.
METAR KSPW 241653Z AUTO 18011KT 10SM CLR 24/15 A3010 RMK AO2 SLP188 T02440150

More Conditions Fewer Conditions

10-Day Weather Forecast

Almanac

Astronomy

Jul. 24, 2014 Rise Set
Actual Time 6:03 AM CDT 8:50 PM CDT
Civil Twilight 5:30 AM CDT 9:23 PM CDT
Nautical Twilight 4:48 AM CDT 10:05 PM CDT
Astronomical Twilight 4:00 AM CDT 10:53 PM CDT
Moon 4:12 AM CDT 7:05 PM CDT
Length of Visible Light 15h 53m
Length of Day
14h 47m
Tomorrow will be 1m 58s shorter.
Waning Crescent, 4% of the Moon is Illuminated
Today
Waning Crescent
Jul 26
New
Aug 3
First Quarter
Aug 10
Full
Aug 17
Last Quarter

Today's Extremes

State Highs State Lows

Community

WunderPhotos

Upload Photos

1,737,079 photos uploaded!

Nearby

Snow Depth

Station Depth Elevation
No new snow has been reported.

Earthquake Activity

City Distance Mag. Time & Date
No recent earthquake activity has been reported nearby.
Minimum magnitude displayed is 2.5.

Coastal Water Temperatures

Place Temperature
No Stations Reporting

Nearby Weather Stations

Station Location Temp. Heat Index Dew Point Humidity Wind Precip. Elev Updated Type
Webb, Iowa, Webb, IA 73.4 °F 76 °F 59 °F 61% NNW  at  6.0 mph 0.00 in / hr 1356 ft 12:37 PM CDT Normal
Mulberry Grove Family Farm, Milford, IA 72.1 °F 75 °F 62 °F 70% South  at  4.0 mph 0.00 in / hr 1453 ft 12:42 PM CDT Rapid Fire
Lost Island Lake, Ruthven, IA 74.1 °F 76 °F 62 °F 66% SSW  at  4.0 mph 0.00 in / hr 1380 ft 12:42 PM CDT Normal
West Sioux Estates 10, Milford, IA 71.8 °F 75 °F 61 °F 68% SW  at  5.0 mph 0.00 in / hr 1420 ft 12:34 PM CDT Normal
Milford Fire Station, Milford, IA 72.2 °F 75 °F 61 °F 67% WSW  at  4.0 mph 0.00 in / hr 1443 ft 12:41 PM CDT Rapid Fire

Show More Stations Show Fewer Stations